createdAt,value
2018-06-15T00:02:18.950Z,7.30
2018-06-15T00:04:47.002Z,7.37
2018-06-15T00:07:15.127Z,6.67
2018-06-15T00:09:43.194Z,7.20
2018-06-15T00:12:11.274Z,9.00
2018-06-15T00:14:39.471Z,8.30
2018-06-15T00:17:07.619Z,7.80
2018-06-15T00:19:35.696Z,7.23
2018-06-15T00:22:03.811Z,6.93
2018-06-15T00:24:31.875Z,6.77
2018-06-15T00:26:59.990Z,6.40
2018-06-15T00:29:28.083Z,6.23
2018-06-15T00:31:56.153Z,6.13
2018-06-15T00:34:24.235Z,5.73
2018-06-15T00:36:52.296Z,5.63
2018-06-15T00:39:20.375Z,5.07
2018-06-15T00:41:48.469Z,5.30
2018-06-15T00:44:16.538Z,4.90
2018-06-15T00:46:44.582Z,4.83
2018-06-15T00:49:13.126Z,5.17
2018-06-15T00:51:41.198Z,5.10
2018-06-15T00:54:09.273Z,6.47
2018-06-15T00:56:48.947Z,5.67
2018-06-15T00:59:17.007Z,6.17
2018-06-15T01:01:45.056Z,6.47
2018-06-15T01:04:13.154Z,7.03
2018-06-15T01:06:41.218Z,8.13
2018-06-15T01:09:09.596Z,8.53
2018-06-15T01:11:37.827Z,8.43
2018-06-15T01:14:05.906Z,8.87
2018-06-15T01:16:34.023Z,8.87
2018-06-15T01:19:02.457Z,9.23
2018-06-15T01:21:30.719Z,9.07
2018-06-15T01:23:58.994Z,9.37
2018-06-15T01:26:27.065Z,9.70
2018-06-15T01:28:55.238Z,9.47
2018-06-15T01:31:23.310Z,9.40
2018-06-15T01:33:51.719Z,9.30
2018-06-15T01:36:19.834Z,9.73
2018-06-15T01:38:47.915Z,9.37
2018-06-15T01:41:16.031Z,9.60
2018-06-15T01:43:43.908Z,9.80
2018-06-15T01:46:11.969Z,10.27
2018-06-15T01:48:40.070Z,9.90
2018-06-15T01:51:08.143Z,9.67
2018-06-15T01:53:36.195Z,8.83
2018-06-15T01:56:04.250Z,10.40
2018-06-15T01:58:32.115Z,9.20
2018-06-15T02:01:00.248Z,10.17
2018-06-15T02:03:28.315Z,9.87
2018-06-15T02:05:56.383Z,9.03
2018-06-15T02:08:24.435Z,9.93
2018-06-15T02:10:52.504Z,9.90
2018-06-15T02:13:20.654Z,10.10
2018-06-15T02:15:48.775Z,10.30
2018-06-15T02:18:16.854Z,9.97
2018-06-15T02:20:44.968Z,10.17
2018-06-15T02:23:13.032Z,9.67
2018-06-15T02:25:41.102Z,10.53
2018-06-15T02:28:09.148Z,9.80
2018-06-15T02:30:37.222Z,9.07
2018-06-15T02:33:05.293Z,9.57
2018-06-15T02:35:33.482Z,10.17
2018-06-15T02:38:01.569Z,10.23
2018-06-15T02:40:29.665Z,10.90
2018-06-15T02:42:57.563Z,10.23
2018-06-15T02:45:25.712Z,9.63
2018-06-15T02:47:53.731Z,10.43
2018-06-15T02:50:21.841Z,10.47
2018-06-15T02:52:49.959Z,10.53
2018-06-15T02:55:18.059Z,10.33
2018-06-15T02:57:46.136Z,11.03
2018-06-15T03:00:14.295Z,10.10
2018-06-15T03:02:42.400Z,10.33
2018-06-15T03:05:10.536Z,10.80
2018-06-15T03:07:38.671Z,11.27
2018-06-15T03:10:06.779Z,12.27
2018-06-15T03:12:34.853Z,10.97
2018-06-15T03:15:02.960Z,12.20
2018-06-15T03:17:31.024Z,12.43
2018-06-15T03:19:59.087Z,11.73
2018-06-15T03:22:27.163Z,11.80
2018-06-15T03:24:55.243Z,11.53
2018-06-15T03:27:23.333Z,12.47
2018-06-15T03:29:51.416Z,12.57
2018-06-15T03:32:19.515Z,11.83
2018-06-15T03:34:47.578Z,12.07
2018-06-15T03:37:15.643Z,11.20
2018-06-15T03:39:43.522Z,11.00
2018-06-15T03:42:11.590Z,12.17
2018-06-15T03:44:39.650Z,11.37
2018-06-15T03:47:07.726Z,12.73
2018-06-15T03:49:35.797Z,12.67
2018-06-15T03:52:03.892Z,12.53
2018-06-15T03:54:31.851Z,13.03
2018-06-15T03:56:59.951Z,12.10
2018-06-15T03:59:28.075Z,11.80
2018-06-15T04:01:56.160Z,12.50
2018-06-15T04:04:24.224Z,12.00
2018-06-15T04:06:52.385Z,12.33
2018-06-15T04:09:20.449Z,12.00
2018-06-15T04:11:48.523Z,12.10
2018-06-15T04:14:16.600Z,12.20
2018-06-15T04:16:44.768Z,12.63
2018-06-15T04:19:12.822Z,11.23
2018-06-15T04:21:40.931Z,11.80
2018-06-15T04:24:09.111Z,11.80
2018-06-15T04:26:37.204Z,10.93
2018-06-15T04:29:05.298Z,12.43
2018-06-15T04:31:33.441Z,11.33
2018-06-15T04:34:01.520Z,12.20
2018-06-15T04:36:29.599Z,12.13
2018-06-15T04:38:57.692Z,11.93
2018-06-15T04:44:00.247Z,16.37
2018-06-15T04:46:28.354Z,15.73
2018-06-15T04:48:56.267Z,16.73
2018-06-15T04:51:24.343Z,17.83
2018-06-15T04:53:52.474Z,18.70
2018-06-15T04:56:20.373Z,21.00
2018-06-15T04:58:48.504Z,21.40
2018-06-15T05:01:16.592Z,18.10
2018-06-15T05:03:44.550Z,14.23
2018-06-15T05:06:12.634Z,13.70
2018-06-15T05:08:40.790Z,12.60
2018-06-15T05:11:08.925Z,13.40
2018-06-15T05:13:37.019Z,12.03
2018-06-15T05:16:05.273Z,12.57
2018-06-15T05:18:33.345Z,11.87
2018-06-15T05:21:01.427Z,12.43
2018-06-15T05:23:29.751Z,12.00
2018-06-15T05:25:57.868Z,12.20
2018-06-15T05:28:25.941Z,11.77
2018-06-15T05:30:54.036Z,11.40
2018-06-15T05:33:22.171Z,12.10
2018-06-15T05:35:50.341Z,12.13
2018-06-15T05:38:18.618Z,12.47
2018-06-15T05:40:46.511Z,11.70
2018-06-15T05:43:14.558Z,12.30
2018-06-15T05:45:42.686Z,11.87
2018-06-15T05:48:10.811Z,11.53
2018-06-15T05:50:38.922Z,12.17
2018-06-15T05:53:07.034Z,11.53
2018-06-15T05:55:35.158Z,11.97
2018-06-15T05:58:03.247Z,12.60
2018-06-15T06:00:31.347Z,10.33
2018-06-15T06:02:59.502Z,11.63
2018-06-15T06:05:27.700Z,11.13
2018-06-15T06:07:55.856Z,11.33
2018-06-15T06:10:24.171Z,10.40
2018-06-15T06:12:52.478Z,11.40
2018-06-15T06:15:20.578Z,11.40
2018-06-15T06:17:48.830Z,9.80
2018-06-15T06:20:16.929Z,10.97
2018-06-15T06:22:44.999Z,10.80
2018-06-15T06:25:13.085Z,11.17
2018-06-15T06:27:41.201Z,9.93
2018-06-15T06:30:09.654Z,10.93
2018-06-15T06:32:37.976Z,11.90
2018-06-15T06:35:06.127Z,10.60
2018-06-15T06:37:35.103Z,10.73
2018-06-15T06:40:03.697Z,10.13
2018-06-15T06:42:32.718Z,10.80
2018-06-15T06:45:00.802Z,10.30
2018-06-15T06:47:29.332Z,10.10
2018-06-15T06:49:59.008Z,10.43
2018-06-15T06:52:27.426Z,9.70
2018-06-15T06:54:57.014Z,9.47
2018-06-15T06:57:25.123Z,9.87
2018-06-15T06:59:53.183Z,9.60
2018-06-15T07:02:21.288Z,10.57
2018-06-15T07:04:49.396Z,10.77
2018-06-15T07:07:17.471Z,10.23
2018-06-15T07:09:45.566Z,9.20
2018-06-15T07:12:13.651Z,10.00
2018-06-15T07:14:41.757Z,10.87
2018-06-15T07:17:09.838Z,10.70
2018-06-15T07:19:37.921Z,10.00
2018-06-15T07:22:05.979Z,10.43
2018-06-15T07:24:34.074Z,10.23
2018-06-15T07:27:02.188Z,9.97
2018-06-15T07:29:30.289Z,9.77
2018-06-15T07:31:58.332Z,9.97
2018-06-15T07:34:26.514Z,10.47
2018-06-15T07:36:54.580Z,10.63
2018-06-15T07:39:22.712Z,11.33
2018-06-15T07:41:50.795Z,9.83
2018-06-15T07:44:18.877Z,10.63
2018-06-15T07:46:46.952Z,9.67
2018-06-15T07:49:15.055Z,10.07
2018-06-15T07:51:43.124Z,11.07
2018-06-15T07:54:11.207Z,11.53
2018-06-15T07:56:39.284Z,9.87
2018-06-15T07:59:07.606Z,10.40
2018-06-15T08:01:35.689Z,10.17
2018-06-15T08:04:06.178Z,9.73
2018-06-15T08:06:34.311Z,10.20
2018-06-15T08:09:02.368Z,9.93
2018-06-15T08:11:30.826Z,10.00
2018-06-15T08:13:59.097Z,10.00
2018-06-15T08:16:26.986Z,10.13
2018-06-15T08:18:55.135Z,8.10
2018-06-15T08:21:23.265Z,8.40
2018-06-15T08:23:51.329Z,8.07
2018-06-15T08:26:19.518Z,7.50
2018-06-15T08:28:47.577Z,8.73
2018-06-15T08:31:15.931Z,9.00
2018-06-15T08:33:44.243Z,8.37
2018-06-15T08:36:12.318Z,7.80
2018-06-15T08:38:40.403Z,6.80
2018-06-15T08:41:08.497Z,7.63
2018-06-15T08:43:36.672Z,7.87
2018-06-15T08:46:04.813Z,8.23
2018-06-15T08:48:32.891Z,7.57
2018-06-15T08:51:00.966Z,7.37
2018-06-15T08:53:29.087Z,8.17
2018-06-15T08:55:57.215Z,8.27
2018-06-15T08:58:25.282Z,8.13
2018-06-15T09:00:53.362Z,7.63
2018-06-15T09:03:21.435Z,7.73
2018-06-15T09:05:49.544Z,8.87
2018-06-15T09:08:17.696Z,7.77
2018-06-15T09:10:45.744Z,7.17
2018-06-15T09:13:13.923Z,6.50
2018-06-15T09:15:42.058Z,6.97
2018-06-15T09:18:10.119Z,6.93
2018-06-15T09:20:38.255Z,8.33
2018-06-15T09:23:06.518Z,6.77
2018-06-15T09:25:34.746Z,7.70
2018-06-15T09:28:02.875Z,7.00
2018-06-15T09:30:30.957Z,6.57
2018-06-15T09:32:59.074Z,6.73
2018-06-15T09:35:27.142Z,7.17
2018-06-15T09:37:55.214Z,5.73
2018-06-15T09:40:23.173Z,6.13
2018-06-15T09:42:51.243Z,5.60
2018-06-15T09:45:19.321Z,5.10
2018-06-15T09:47:47.433Z,5.20
2018-06-15T09:50:15.503Z,5.40
2018-06-15T09:52:43.604Z,5.00
2018-06-15T09:55:11.727Z,4.63
2018-06-15T09:57:39.827Z,4.27
2018-06-15T10:00:07.944Z,4.33
2018-06-15T10:02:36.021Z,3.97
2018-06-15T10:05:04.143Z,4.13
2018-06-15T10:07:32.255Z,4.70
2018-06-15T10:10:00.312Z,4.00
2018-06-15T10:12:28.388Z,3.87
2018-06-15T10:14:56.467Z,3.80
2018-06-15T10:17:24.565Z,3.40
2018-06-15T10:19:52.657Z,4.13
2018-06-15T10:22:20.748Z,3.97
2018-06-15T10:24:48.810Z,3.83
2018-06-15T10:27:16.952Z,3.60
2018-06-15T10:29:45.031Z,3.53
2018-06-15T10:32:13.168Z,3.77
2018-06-15T10:34:41.280Z,3.77
2018-06-15T10:37:09.419Z,3.37
2018-06-15T10:39:37.548Z,2.93
2018-06-15T10:42:05.576Z,2.80
2018-06-15T10:44:33.676Z,2.37
2018-06-15T10:47:01.723Z,2.07
2018-06-15T10:49:29.819Z,2.00
2018-06-15T10:51:57.931Z,1.53
2018-06-15T10:54:26.019Z,1.80
2018-06-15T10:56:54.102Z,1.90
2018-06-15T10:59:22.173Z,1.50
2018-06-15T11:01:50.219Z,2.50
2018-06-15T11:04:18.330Z,2.90
2018-06-15T11:06:46.389Z,2.93
2018-06-15T11:09:14.475Z,2.80
2018-06-15T11:11:42.553Z,3.20
2018-06-15T11:14:10.660Z,3.23
2018-06-15T11:16:38.734Z,3.57
2018-06-15T11:19:06.807Z,2.90
2018-06-15T11:21:34.881Z,3.10
2018-06-15T11:24:03.027Z,4.20
2018-06-15T11:26:31.079Z,3.73
2018-06-15T11:28:59.184Z,3.10
2018-06-15T11:31:27.286Z,2.97
2018-06-15T11:33:55.165Z,3.60
2018-06-15T11:36:23.031Z,4.03
2018-06-15T11:38:51.120Z,4.40
2018-06-15T11:41:19.314Z,4.27
2018-06-15T11:43:47.323Z,4.40
2018-06-15T11:46:15.416Z,6.60
2018-06-15T11:48:43.504Z,4.20
2018-06-15T11:51:11.588Z,4.33
2018-06-15T11:53:39.714Z,4.50
2018-06-15T11:56:07.919Z,4.27
2018-06-15T11:58:35.988Z,4.30
2018-06-15T12:01:04.128Z,4.67
2018-06-15T12:03:32.213Z,3.87
2018-06-15T12:06:00.307Z,4.67
2018-06-15T12:08:28.441Z,3.83
2018-06-15T12:10:56.553Z,3.73
2018-06-15T12:13:24.618Z,3.13
2018-06-15T12:15:52.706Z,5.50
2018-06-15T12:18:20.763Z,3.63
2018-06-15T12:20:48.843Z,3.50
2018-06-15T12:23:16.901Z,4.43
2018-06-15T12:25:44.992Z,4.40
2018-06-15T12:28:13.071Z,6.20
2018-06-15T12:30:41.179Z,3.63
2018-06-15T12:33:09.287Z,4.27
2018-06-15T12:35:37.384Z,3.40
2018-06-15T12:38:05.456Z,3.10
2018-06-15T12:40:33.585Z,3.20
2018-06-15T12:43:01.700Z,3.73
2018-06-15T12:45:29.792Z,3.57
2018-06-15T12:47:57.906Z,3.27
2018-06-15T12:50:26.045Z,4.60
2018-06-15T12:52:54.139Z,4.73
2018-06-15T12:55:22.196Z,3.70
2018-06-15T12:57:50.285Z,4.27
2018-06-15T13:00:18.385Z,4.40
2018-06-15T13:02:46.483Z,4.90
2018-06-15T13:05:14.642Z,4.20
2018-06-15T13:07:42.760Z,4.00
2018-06-15T13:10:10.883Z,4.47
2018-06-15T13:12:38.993Z,3.83
2018-06-15T13:15:06.913Z,4.07
2018-06-15T13:17:35.128Z,3.70
2018-06-15T13:20:03.275Z,3.93
2018-06-15T13:22:31.340Z,4.10
2018-06-15T13:24:59.445Z,4.03
2018-06-15T13:27:27.572Z,3.77
2018-06-15T13:29:55.703Z,3.67
2018-06-15T13:32:23.818Z,4.70
2018-06-15T13:34:51.887Z,3.90
2018-06-15T13:37:20.018Z,4.20
2018-06-15T13:39:48.133Z,4.20
2018-06-15T13:42:16.235Z,4.23
2018-06-15T13:44:44.273Z,3.83
2018-06-15T13:47:12.380Z,4.53
2018-06-15T13:49:40.418Z,3.57
2018-06-15T13:52:08.479Z,4.47
2018-06-15T13:54:36.537Z,4.80
2018-06-15T13:57:04.630Z,4.20
2018-06-15T13:59:32.695Z,4.00
2018-06-15T14:02:00.594Z,4.17
2018-06-15T14:04:28.737Z,3.83
2018-06-15T14:06:56.926Z,4.00
2018-06-15T14:09:25.031Z,3.70
2018-06-15T14:11:53.138Z,2.90
2018-06-15T14:14:21.252Z,3.00
2018-06-15T14:16:49.419Z,3.50
2018-06-15T14:19:17.595Z,3.60
2018-06-15T14:21:45.730Z,3.63
2018-06-15T14:24:13.819Z,3.60
2018-06-15T14:26:41.934Z,3.80
2018-06-15T14:29:10.044Z,3.60
2018-06-15T14:31:38.113Z,3.80
2018-06-15T14:34:06.202Z,3.50
2018-06-15T14:36:34.322Z,3.53
2018-06-15T14:39:02.435Z,3.70
2018-06-15T14:41:30.509Z,3.10
2018-06-15T14:43:58.600Z,3.80
2018-06-15T14:46:26.662Z,3.90
2018-06-15T14:48:54.719Z,3.87
2018-06-15T14:51:22.824Z,3.77
2018-06-15T14:53:50.918Z,3.57
2018-06-15T14:56:19.012Z,3.60
2018-06-15T14:58:47.070Z,3.30
2018-06-15T15:01:15.188Z,3.63
2018-06-15T15:03:43.258Z,3.73
2018-06-15T15:06:11.359Z,4.70
2018-06-15T15:08:39.457Z,3.40
2018-06-15T15:11:07.534Z,3.97
2018-06-15T15:13:35.628Z,4.07
2018-06-15T15:16:03.723Z,4.33
2018-06-15T15:18:31.790Z,3.83
2018-06-15T15:20:59.866Z,3.40
2018-06-15T15:23:28.016Z,3.60
2018-06-15T15:25:56.128Z,3.60
2018-06-15T15:28:24.230Z,3.10
2018-06-15T15:30:52.407Z,3.70
2018-06-15T15:33:20.504Z,3.33
2018-06-15T15:35:48.627Z,4.20
2018-06-15T15:38:16.754Z,3.60
2018-06-15T15:40:44.622Z,3.60
2018-06-15T15:43:12.689Z,3.57
2018-06-15T15:45:40.780Z,4.00
2018-06-15T15:48:08.820Z,3.60
2018-06-15T15:50:36.911Z,3.20
2018-06-15T15:53:05.792Z,3.20
2018-06-15T15:55:33.916Z,3.90
2018-06-15T15:58:01.977Z,3.70
2018-06-15T16:00:30.065Z,3.30
2018-06-15T16:02:58.135Z,3.60
2018-06-15T16:05:26.241Z,3.10
2018-06-15T16:07:54.336Z,4.03
2018-06-15T16:10:22.518Z,3.77
2018-06-15T16:12:50.376Z,3.50
2018-06-15T16:15:18.467Z,3.50
2018-06-15T16:17:46.542Z,3.60
2018-06-15T16:20:14.717Z,3.30
2018-06-15T16:22:42.779Z,3.23
2018-06-15T16:25:10.902Z,3.70
2018-06-15T16:27:38.995Z,3.63
2018-06-15T16:30:07.102Z,3.40
2018-06-15T16:32:35.164Z,3.37
2018-06-15T16:35:03.267Z,3.23
2018-06-15T16:37:31.415Z,3.50
2018-06-15T16:39:59.497Z,3.67
2018-06-15T16:42:27.576Z,3.37
2018-06-15T16:44:55.866Z,3.17
2018-06-15T16:47:23.945Z,3.20
2018-06-15T16:49:52.067Z,3.10
2018-06-15T16:52:20.140Z,3.43
2018-06-15T16:54:48.368Z,3.50
2018-06-15T16:57:16.427Z,3.00
2018-06-15T16:59:44.549Z,3.50
2018-06-15T17:02:12.639Z,3.77
2018-06-15T17:04:40.744Z,3.53
2018-06-15T17:07:08.868Z,3.30
2018-06-15T17:09:37.014Z,3.07
2018-06-15T17:12:05.108Z,3.73
2018-06-15T17:14:33.195Z,3.30
2018-06-15T17:17:01.288Z,3.83
2018-06-15T17:19:29.401Z,3.90
2018-06-15T17:21:57.697Z,4.37
2018-06-15T17:24:25.754Z,4.70
2018-06-15T17:26:53.827Z,4.23
2018-06-15T17:29:21.874Z,4.27
2018-06-15T17:31:49.995Z,3.40
2018-06-15T17:34:18.082Z,3.70
2018-06-15T17:36:46.436Z,3.93
2018-06-15T17:39:14.678Z,3.63
2018-06-15T17:41:47.000Z,3.97
2018-06-15T17:44:15.091Z,3.50
2018-06-15T17:46:43.182Z,3.40
2018-06-15T17:49:11.373Z,3.87
2018-06-15T17:51:39.446Z,4.20
2018-06-15T17:54:07.779Z,3.80
2018-06-15T17:56:35.857Z,3.70
2018-06-15T17:59:03.923Z,3.70
2018-06-15T18:01:32.135Z,3.70
2018-06-15T18:04:00.206Z,3.87
2018-06-15T18:06:28.106Z,3.80
2018-06-15T18:08:56.280Z,3.53
2018-06-15T18:11:24.360Z,3.87
2018-06-15T18:13:52.489Z,3.80
2018-06-15T18:16:20.591Z,4.00
2018-06-15T18:18:48.681Z,4.10
2018-06-15T18:21:16.739Z,4.60
2018-06-15T18:23:44.860Z,3.80
2018-06-15T18:26:12.963Z,3.57
2018-06-15T18:28:41.248Z,3.90
2018-06-15T18:31:09.477Z,3.60
2018-06-15T18:33:37.577Z,4.00
2018-06-15T18:36:05.639Z,3.70
2018-06-15T18:38:33.857Z,3.73
2018-06-15T18:41:01.910Z,3.70
2018-06-15T18:43:30.008Z,4.03
2018-06-15T18:45:58.108Z,3.97
2018-06-15T18:48:26.214Z,4.03
2018-06-15T18:50:54.304Z,5.00
2018-06-15T18:53:22.372Z,4.30
2018-06-15T18:55:50.447Z,4.00
2018-06-15T18:58:18.600Z,4.27
2018-06-15T19:00:46.684Z,3.77
2018-06-15T19:03:14.776Z,3.60
2018-06-15T19:05:43.270Z,4.10
2018-06-15T19:08:11.332Z,5.00
2018-06-15T19:10:39.676Z,4.33
2018-06-15T19:13:07.787Z,3.93
2018-06-15T19:15:35.643Z,4.40
2018-06-15T19:18:03.702Z,4.30
2018-06-15T19:20:31.819Z,4.37
2018-06-15T19:22:59.798Z,4.23
2018-06-15T19:25:27.891Z,4.20
2018-06-15T19:27:55.989Z,4.07
2018-06-15T19:30:24.063Z,4.10
2018-06-15T19:32:52.135Z,4.10
2018-06-15T19:35:20.218Z,5.00
2018-06-15T19:37:48.310Z,4.30
2018-06-15T19:40:16.377Z,4.83
2018-06-15T19:42:44.447Z,4.63
2018-06-15T19:45:12.569Z,3.80
2018-06-15T19:47:40.652Z,4.63
2018-06-15T19:50:08.699Z,4.67
2018-06-15T19:52:36.784Z,5.40
2018-06-15T19:55:04.972Z,5.13
2018-06-15T19:57:33.041Z,5.27
2018-06-15T20:00:01.123Z,4.70
2018-06-15T20:02:29.219Z,4.37
2018-06-15T20:04:57.295Z,5.10
2018-06-15T20:07:25.398Z,5.27
2018-06-15T20:09:53.461Z,5.00
2018-06-15T20:12:21.498Z,4.80
2018-06-15T20:14:49.568Z,5.43
2018-06-15T20:17:17.648Z,5.27
2018-06-15T20:19:45.726Z,5.60
2018-06-15T20:22:13.809Z,5.50
2018-06-15T20:24:41.894Z,5.10
2018-06-15T20:27:09.938Z,4.90
2018-06-15T20:29:38.172Z,5.00
2018-06-15T20:32:06.120Z,5.60
2018-06-15T20:34:34.243Z,5.50
2018-06-15T20:37:02.350Z,5.90
2018-06-15T20:39:30.421Z,5.30
2018-06-15T20:42:01.155Z,5.50
2018-06-15T20:44:29.268Z,5.40
2018-06-15T20:46:57.338Z,5.93
2018-06-15T20:49:25.419Z,5.70
2018-06-15T20:51:53.477Z,6.40
2018-06-15T20:54:21.545Z,7.13
2018-06-15T20:56:49.618Z,6.97
2018-06-15T20:59:17.752Z,6.30
2018-06-15T21:01:45.850Z,6.67
2018-06-15T21:04:13.911Z,7.67
2018-06-15T21:06:42.033Z,6.30
2018-06-15T21:09:10.518Z,6.47
2018-06-15T21:11:38.636Z,5.50
2018-06-15T21:14:06.874Z,6.00
2018-06-15T21:16:34.964Z,5.67
2018-06-15T21:19:03.059Z,6.20
2018-06-15T21:21:31.150Z,5.80
2018-06-15T21:23:59.594Z,5.63
2018-06-15T21:26:27.682Z,5.20
2018-06-15T21:28:56.020Z,5.70
2018-06-15T21:31:23.978Z,6.17
2018-06-15T21:33:52.072Z,5.80
2018-06-15T21:36:20.231Z,6.20
2018-06-15T21:38:48.321Z,6.50
2018-06-15T21:41:16.399Z,6.77
2018-06-15T21:43:44.494Z,6.13
2018-06-15T21:46:12.606Z,5.90
2018-06-15T21:48:40.778Z,5.80
2018-06-15T21:51:08.841Z,6.20
2018-06-15T21:53:36.891Z,6.30
2018-06-15T21:56:04.982Z,6.53
2018-06-15T21:58:33.053Z,6.40
2018-06-15T22:01:01.128Z,5.93
2018-06-15T22:03:29.195Z,6.10
2018-06-15T22:05:57.304Z,6.20
2018-06-15T22:08:25.372Z,6.17
2018-06-15T22:10:53.490Z,6.33
2018-06-15T22:13:21.617Z,6.13
2018-06-15T22:15:49.804Z,6.33
2018-06-15T22:18:17.918Z,6.50
2018-06-15T22:20:45.996Z,8.90
2018-06-15T22:23:14.071Z,6.90
2018-06-15T22:25:42.212Z,6.30
2018-06-15T22:28:10.283Z,6.13
2018-06-15T22:30:38.348Z,7.53
2018-06-15T22:33:06.334Z,7.53
2018-06-15T22:35:34.409Z,7.53
2018-06-15T22:38:02.482Z,6.50
2018-06-15T22:40:30.558Z,7.07
2018-06-15T22:42:58.626Z,6.40
2018-06-15T22:45:26.676Z,5.87
2018-06-15T22:47:54.561Z,5.90
2018-06-15T22:50:22.620Z,6.70
2018-06-15T22:52:50.708Z,6.10
2018-06-15T22:55:18.784Z,6.27
2018-06-15T22:57:46.891Z,6.40
2018-06-15T23:00:16.988Z,5.87
2018-06-15T23:02:45.215Z,6.17
2018-06-15T23:05:13.263Z,6.00
2018-06-15T23:07:41.506Z,6.37
2018-06-15T23:10:09.573Z,6.70
2018-06-15T23:12:37.679Z,5.87
2018-06-15T23:15:05.722Z,6.00
2018-06-15T23:17:33.953Z,5.93
2018-06-15T23:20:02.020Z,6.60
2018-06-15T23:22:30.093Z,6.77
2018-06-15T23:24:58.241Z,7.07
2018-06-15T23:27:26.295Z,6.23
2018-06-15T23:29:54.660Z,6.77
2018-06-15T23:32:22.847Z,6.20
2018-06-15T23:34:51.233Z,6.63
2018-06-15T23:37:19.302Z,6.60
2018-06-15T23:39:47.405Z,6.70
2018-06-15T23:42:15.470Z,6.27
2018-06-15T23:44:43.674Z,6.57
2018-06-15T23:47:11.741Z,6.10
2018-06-15T23:49:39.802Z,6.60
2018-06-15T23:52:07.855Z,6.73
2018-06-15T23:54:35.963Z,7.43
2018-06-15T23:57:04.056Z,6.27
2018-06-15T23:59:32.136Z,6.73
